createdAt,value
2018-04-02T00:02:03.360Z,79.40
2018-04-02T00:04:31.589Z,79.80
2018-04-02T00:06:58.416Z,79.80
2018-04-02T00:09:28.616Z,80.30
2018-04-02T00:11:57.255Z,80.20
2018-04-02T00:14:26.282Z,79.90
2018-04-02T00:16:54.681Z,79.90
2018-04-02T00:21:55.307Z,79.60
2018-04-02T00:24:23.439Z,79.60
2018-04-02T00:26:54.622Z,79.70
2018-04-02T00:31:56.064Z,79.40
2018-04-02T00:34:24.159Z,79.70
2018-04-02T00:36:51.653Z,79.50
2018-04-02T00:39:20.611Z,79.50
2018-04-02T00:41:47.272Z,79.20
2018-04-02T00:44:15.377Z,79.20
2018-04-02T00:46:43.493Z,78.60
2018-04-02T00:49:12.155Z,78.00
2018-04-02T00:51:43.529Z,78.10
2018-04-02T00:54:11.648Z,77.70
2018-04-02T00:56:39.102Z,77.40
2018-04-02T00:59:06.678Z,77.80
2018-04-02T01:01:34.705Z,77.00
2018-04-02T01:04:02.038Z,76.50
2018-04-02T01:06:29.372Z,76.80
2018-04-02T01:08:56.506Z,76.90
2018-04-02T01:11:26.881Z,76.00
2018-04-02T01:13:55.489Z,76.50
2018-04-02T01:16:22.015Z,76.50
2018-04-02T01:18:50.611Z,76.40
2018-04-02T01:21:19.696Z,76.90
2018-04-02T01:23:47.336Z,76.80
2018-04-02T01:26:15.057Z,77.00
2018-04-02T01:28:42.493Z,77.20
2018-04-02T01:31:11.198Z,78.30
2018-04-02T01:33:40.096Z,77.50
2018-04-02T01:36:10.502Z,78.00
2018-04-02T01:38:37.513Z,78.40
2018-04-02T01:41:06.189Z,78.70
2018-04-02T01:43:33.852Z,78.50
2018-04-02T01:46:01.907Z,78.40
2018-04-02T01:48:29.495Z,78.50
2018-04-02T01:50:56.138Z,78.90
2018-04-02T01:53:22.118Z,79.10
2018-04-02T01:55:48.322Z,79.20
2018-04-02T01:58:15.422Z,79.30
2018-04-02T02:00:41.379Z,79.30
2018-04-02T02:03:08.255Z,78.80
2018-04-02T02:05:35.420Z,78.50
2018-04-02T02:08:01.411Z,78.40
2018-04-02T02:10:28.150Z,78.30
2018-04-02T02:12:54.102Z,78.20
2018-04-02T02:15:21.650Z,77.90
2018-04-02T02:17:47.594Z,77.70
2018-04-02T02:20:13.818Z,77.90
2018-04-02T02:22:39.788Z,77.90
2018-04-02T02:25:05.765Z,77.80
2018-04-02T02:27:31.725Z,78.40
2018-04-02T02:30:00.002Z,78.40
2018-04-02T02:32:25.940Z,78.30
2018-04-02T02:34:52.425Z,78.10
2018-04-02T02:37:18.403Z,77.70
2018-04-02T02:39:45.205Z,76.90
2018-04-02T02:42:11.870Z,76.70
2018-04-02T02:44:37.804Z,76.70
2018-04-02T02:47:04.493Z,76.60
2018-04-02T02:49:30.498Z,76.40
2018-04-02T02:51:56.447Z,76.90
2018-04-02T02:54:22.418Z,77.60
2018-04-02T02:56:49.104Z,77.70
2018-04-02T02:59:15.511Z,77.70
2018-04-02T03:01:41.468Z,77.40
2018-04-02T03:04:07.432Z,77.00
2018-04-02T03:06:34.115Z,76.30
2018-04-02T03:09:00.098Z,76.30
2018-04-02T03:11:26.770Z,76.20
2018-04-02T03:13:52.720Z,76.10
2018-04-02T03:16:18.665Z,75.90
2018-04-02T03:18:45.343Z,75.50
2018-04-02T03:21:11.255Z,75.40
2018-04-02T03:23:37.163Z,75.20
2018-04-02T03:26:03.818Z,74.90
2018-04-02T03:28:29.707Z,74.80
2018-04-02T03:30:55.663Z,75.10
2018-04-02T03:33:21.583Z,76.40
2018-04-02T03:35:47.566Z,78.70
2018-04-02T03:38:13.490Z,79.90
2018-04-02T03:40:39.386Z,80.40
2018-04-02T03:43:05.344Z,80.30
2018-04-02T03:45:31.288Z,79.70
2018-04-02T03:47:57.231Z,79.30
2018-04-02T03:50:23.167Z,79.20
2018-04-02T03:52:49.126Z,79.50
2018-04-02T03:55:15.802Z,79.20
2018-04-02T03:57:41.764Z,79.20
2018-04-02T04:00:07.648Z,78.90
2018-04-02T04:02:33.563Z,78.50
2018-04-02T04:04:59.498Z,78.40
2018-04-02T04:07:25.419Z,78.00
2018-04-02T04:09:51.332Z,77.70
2018-04-02T04:12:17.265Z,77.40
2018-04-02T04:14:43.195Z,77.20
2018-04-02T04:17:09.131Z,77.20
2018-04-02T04:19:35.080Z,77.10
2018-04-02T04:22:01.724Z,77.00
2018-04-02T04:24:28.404Z,76.90
2018-04-02T04:26:54.295Z,76.90
2018-04-02T04:29:20.207Z,76.60
2018-04-02T04:31:46.890Z,76.80
2018-04-02T04:34:12.791Z,76.70
2018-04-02T04:36:38.699Z,76.90
2018-04-02T04:39:04.587Z,76.50
2018-04-02T04:41:30.511Z,76.20
2018-04-02T04:43:56.425Z,76.30
2018-04-02T04:46:22.335Z,76.40
2018-04-02T04:48:48.234Z,76.20
2018-04-02T04:51:14.151Z,76.40
2018-04-02T04:53:40.068Z,76.40
2018-04-02T04:56:05.995Z,76.40
2018-04-02T04:58:31.898Z,76.50
2018-04-02T05:00:57.807Z,76.40
2018-04-02T05:03:23.726Z,76.40
2018-04-02T05:05:50.356Z,76.90
2018-04-02T05:08:17.022Z,77.10
2018-04-02T05:10:42.932Z,77.10
2018-04-02T05:13:08.856Z,77.70
2018-04-02T05:15:34.789Z,77.30
2018-04-02T05:18:00.730Z,76.90
2018-04-02T05:20:26.639Z,77.20
2018-04-02T05:22:52.568Z,77.20
2018-04-02T05:25:18.467Z,77.10
2018-04-02T05:27:44.423Z,77.60
2018-04-02T05:30:10.354Z,77.30
2018-04-02T05:32:36.269Z,77.30
2018-04-02T05:35:02.165Z,77.20
2018-04-02T05:37:28.104Z,76.70
2018-04-02T05:39:53.988Z,76.30
2018-04-02T05:42:20.643Z,76.40
2018-04-02T05:44:46.581Z,76.40
2018-04-02T05:47:12.476Z,76.70
2018-04-02T05:49:38.420Z,76.80
2018-04-02T05:52:04.328Z,76.70
2018-04-02T05:54:30.254Z,76.90
2018-04-02T05:56:56.139Z,77.20
2018-04-02T05:59:22.067Z,77.40
2018-04-02T06:01:47.987Z,77.70
2018-04-02T06:04:13.912Z,78.10
2018-04-02T06:06:39.846Z,78.20
2018-04-02T06:09:05.742Z,78.60
2018-04-02T06:11:31.660Z,78.80
2018-04-02T06:13:58.276Z,79.10
2018-04-02T06:16:24.982Z,80.90
2018-04-02T06:18:50.919Z,80.20
2018-04-02T06:21:16.879Z,80.70
2018-04-02T06:23:42.774Z,81.50
2018-04-02T06:26:08.693Z,80.80
2018-04-02T06:28:34.600Z,81.00
2018-04-02T06:31:00.527Z,81.80
2018-04-02T06:33:26.456Z,81.30
2018-04-02T06:35:52.367Z,81.00
2018-04-02T06:38:18.300Z,81.40
2018-04-02T06:40:44.194Z,82.20
2018-04-02T06:43:10.140Z,81.50
2018-04-02T06:45:36.034Z,80.90
2018-04-02T06:48:01.956Z,81.60
2018-04-02T06:50:27.857Z,81.60
2018-04-02T06:52:53.832Z,80.90
2018-04-02T06:55:19.739Z,80.60
2018-04-02T06:57:45.703Z,80.20
2018-04-02T07:00:11.632Z,80.20
2018-04-02T07:02:37.576Z,80.20
2018-04-02T07:05:03.579Z,80.20
2018-04-02T07:07:29.575Z,81.60
2018-04-02T07:09:55.633Z,81.90
2018-04-02T07:12:21.677Z,81.50
2018-04-02T07:14:49.370Z,81.90
2018-04-02T07:17:15.366Z,81.80
2018-04-02T07:19:41.330Z,81.40
2018-04-02T07:22:07.752Z,80.50
2018-04-02T07:24:34.538Z,81.00
2018-04-02T07:27:00.497Z,79.90
2018-04-02T07:29:26.819Z,80.30
2018-04-02T07:31:53.916Z,79.20
2018-04-02T07:34:19.900Z,80.00
2018-04-02T07:36:46.632Z,79.80
2018-04-02T07:39:12.639Z,79.10
2018-04-02T07:41:38.591Z,78.50
2018-04-02T07:44:05.255Z,79.00
2018-04-02T07:46:31.191Z,79.00
2018-04-02T07:48:57.135Z,78.30
2018-04-02T07:51:23.074Z,78.60
2018-04-02T07:53:49.056Z,77.50
2018-04-02T07:56:15.037Z,76.40
2018-04-02T07:58:40.945Z,76.70
2018-04-02T08:01:06.852Z,75.10
2018-04-02T08:03:32.794Z,75.60
2018-04-02T08:05:58.777Z,74.90
2018-04-02T08:08:24.743Z,75.50
2018-04-02T08:10:50.688Z,75.60
2018-04-02T08:13:16.610Z,74.60
2018-04-02T08:15:43.315Z,75.90
2018-04-02T08:18:09.431Z,75.90
2018-04-02T08:20:35.326Z,75.80
2018-04-02T08:23:01.298Z,74.20
2018-04-02T08:25:27.976Z,74.50
2018-04-02T08:27:53.951Z,74.40
2018-04-02T08:30:19.913Z,73.50
2018-04-02T08:35:18.263Z,71.50
2018-04-02T08:37:44.184Z,71.50
2018-04-02T08:40:10.107Z,71.50
2018-04-02T08:42:36.097Z,68.90
2018-04-02T08:45:02.052Z,69.60
2018-04-02T08:47:27.970Z,69.70
2018-04-02T08:49:54.712Z,67.40
2018-04-02T08:52:20.657Z,67.40
2018-04-02T08:54:47.389Z,66.60
2018-04-02T08:57:13.386Z,66.70
2018-04-02T08:59:39.363Z,67.90
2018-04-02T09:02:05.331Z,67.80
2018-04-02T09:04:31.288Z,67.00
2018-04-02T09:06:57.256Z,67.20
2018-04-02T09:09:23.212Z,63.60
2018-04-02T09:11:49.927Z,62.10
2018-04-02T09:14:16.239Z,62.10
2018-04-02T09:16:42.268Z,58.10
2018-04-02T09:19:08.254Z,59.40
2018-04-02T09:21:34.177Z,59.90
2018-04-02T09:24:00.179Z,58.80
2018-04-02T09:26:26.647Z,57.20
2018-04-02T09:28:52.644Z,57.40
2018-04-02T09:31:18.674Z,55.10
2018-04-02T09:33:45.531Z,53.20
2018-04-02T09:36:11.603Z,54.60
2018-04-02T09:38:37.927Z,53.20
2018-04-02T09:41:04.776Z,53.50
2018-04-02T09:43:31.885Z,53.20
2018-04-02T09:45:57.884Z,52.80
2018-04-02T09:48:24.047Z,51.20
2018-04-02T09:50:50.108Z,51.80
2018-04-02T09:53:16.859Z,52.90
2018-04-02T09:55:42.979Z,52.30
2018-04-02T09:58:09.077Z,52.60
2018-04-02T10:00:35.511Z,54.40
2018-04-02T10:03:01.540Z,52.40
2018-04-02T10:05:27.637Z,52.80
2018-04-02T10:07:54.002Z,52.10
2018-04-02T10:10:20.149Z,52.60
2018-04-02T10:12:47.865Z,52.10
2018-04-02T10:15:14.026Z,52.50
2018-04-02T10:17:40.045Z,52.10
2018-04-02T10:20:06.078Z,53.30
2018-04-02T10:22:32.137Z,54.00
2018-04-02T10:24:58.354Z,53.60
2018-04-02T10:27:24.443Z,51.50
2018-04-02T10:29:50.374Z,50.90
2018-04-02T10:32:16.436Z,50.80
2018-04-02T10:34:42.850Z,50.60
2018-04-02T10:37:08.874Z,50.50
2018-04-02T10:39:34.874Z,50.40
2018-04-02T10:42:02.205Z,50.20
2018-04-02T10:44:28.212Z,49.60
2018-04-02T10:46:54.317Z,50.90
2018-04-02T10:49:20.548Z,51.20
2018-04-02T10:51:46.513Z,48.30
2018-04-02T10:54:12.571Z,48.30
2018-04-02T10:56:39.485Z,47.00
2018-04-02T10:59:05.551Z,47.00
2018-04-02T11:01:31.522Z,47.80
2018-04-02T11:03:57.554Z,47.40
2018-04-02T11:06:23.565Z,48.10
2018-04-02T11:08:49.528Z,46.50
2018-04-02T11:11:15.711Z,46.60
2018-04-02T11:13:42.068Z,45.80
2018-04-02T11:16:08.104Z,47.10
2018-04-02T11:18:34.845Z,47.00
2018-04-02T11:21:01.535Z,45.00
2018-04-02T11:23:27.593Z,44.80
2018-04-02T11:25:54.497Z,43.50
2018-04-02T11:28:20.481Z,43.50
2018-04-02T11:30:46.477Z,43.70
2018-04-02T11:33:13.241Z,43.20
2018-04-02T11:35:39.221Z,43.10
2018-04-02T11:38:05.221Z,41.50
2018-04-02T11:40:31.882Z,41.90
2018-04-02T11:42:57.968Z,41.90
2018-04-02T11:45:24.835Z,41.50
2018-04-02T11:47:50.812Z,41.70
2018-04-02T11:50:17.503Z,43.60
2018-04-02T11:52:43.441Z,43.50
2018-04-02T11:55:09.395Z,42.10
2018-04-02T11:57:36.075Z,42.40
2018-04-02T12:00:02.104Z,42.50
2018-04-02T12:02:28.780Z,41.70
2018-04-02T12:04:54.751Z,41.70
2018-04-02T12:07:20.703Z,41.70
2018-04-02T12:09:46.721Z,40.20
2018-04-02T12:12:12.613Z,40.10
2018-04-02T12:14:38.576Z,40.80
2018-04-02T12:17:05.301Z,39.00
2018-04-02T12:19:31.212Z,39.00
2018-04-02T12:21:57.132Z,37.70
2018-04-02T12:24:23.091Z,39.10
2018-04-02T12:26:49.079Z,39.60
2018-04-02T12:29:15.080Z,38.70
2018-04-02T12:31:41.248Z,38.80
2018-04-02T12:34:07.225Z,38.50
2018-04-02T12:36:34.508Z,36.60
2018-04-02T12:39:00.486Z,37.10
2018-04-02T12:41:26.448Z,35.30
2018-04-02T12:43:52.669Z,36.40
2018-04-02T12:46:18.613Z,36.10
2018-04-02T12:48:44.580Z,35.00
2018-04-02T12:51:10.506Z,35.20
2018-04-02T12:53:36.755Z,34.60
2018-04-02T12:56:02.726Z,36.30
2018-04-02T12:58:29.789Z,34.30
2018-04-02T13:00:56.534Z,34.90
2018-04-02T13:03:22.550Z,34.90
2018-04-02T13:05:48.563Z,34.20
2018-04-02T13:08:15.254Z,33.00
2018-04-02T13:10:41.271Z,32.90
2018-04-02T13:13:07.942Z,33.60
2018-04-02T13:15:34.648Z,33.70
2018-04-02T13:18:00.951Z,32.20
2018-04-02T13:20:27.179Z,30.30
2018-04-02T13:22:53.964Z,31.50
2018-04-02T13:25:20.134Z,31.60
2018-04-02T13:27:46.312Z,33.20
2018-04-02T13:30:12.627Z,30.10
2018-04-02T13:32:38.833Z,31.00
2018-04-02T13:35:05.686Z,29.80
2018-04-02T13:37:31.684Z,29.70
2018-04-02T13:39:57.660Z,29.60
2018-04-02T13:42:23.657Z,28.00
2018-04-02T13:44:50.903Z,27.90
2018-04-02T13:47:16.902Z,27.10
2018-04-02T13:49:42.857Z,28.30
2018-04-02T13:52:08.827Z,29.10
2018-04-02T13:54:34.748Z,28.80
2018-04-02T13:57:00.747Z,28.90
2018-04-02T13:59:26.768Z,29.60
2018-04-02T14:01:52.711Z,29.40
2018-04-02T14:04:18.684Z,27.50
2018-04-02T14:06:44.624Z,25.00
2018-04-02T14:09:10.567Z,28.80
2018-04-02T14:11:36.553Z,27.40
2018-04-02T14:14:02.571Z,27.80
2018-04-02T14:16:28.537Z,32.20
2018-04-02T14:18:54.522Z,34.80
2018-04-02T14:21:20.470Z,25.70
2018-04-02T14:23:46.391Z,25.70
2018-04-02T14:26:12.326Z,25.00
2018-04-02T14:28:38.225Z,25.80
2018-04-02T14:31:04.140Z,26.30
2018-04-02T14:33:30.072Z,25.90
2018-04-02T14:35:56.008Z,26.20
2018-04-02T14:38:21.901Z,26.00
2018-04-02T14:40:47.891Z,26.80
2018-04-02T14:43:14.532Z,27.20
2018-04-02T14:45:40.450Z,27.20
2018-04-02T14:48:07.153Z,26.00
2018-04-02T14:50:33.063Z,25.50
2018-04-02T14:53:00.116Z,24.50
2018-04-02T14:55:26.023Z,24.80
2018-04-02T14:57:52.969Z,25.80
2018-04-02T15:00:18.907Z,25.90
2018-04-02T15:02:44.852Z,25.80
2018-04-02T15:05:11.568Z,25.50
2018-04-02T15:07:37.622Z,25.50
2018-04-02T15:10:04.315Z,24.90
2018-04-02T15:12:30.346Z,25.40
2018-04-02T15:14:56.318Z,25.00
2018-04-02T15:17:22.991Z,25.70
2018-04-02T15:19:48.928Z,25.70
2018-04-02T15:22:14.828Z,27.00
2018-04-02T15:24:40.791Z,25.90
2018-04-02T15:27:06.699Z,26.30
2018-04-02T15:29:32.666Z,27.50
2018-04-02T15:31:58.560Z,27.00
2018-04-02T15:34:24.500Z,26.70
2018-04-02T15:36:51.150Z,27.60
2018-04-02T15:39:17.111Z,28.10
2018-04-02T15:41:43.031Z,27.90
2018-04-02T15:44:08.979Z,27.40
2018-04-02T15:46:34.891Z,26.90
2018-04-02T15:49:00.795Z,26.70
2018-04-02T15:51:26.732Z,26.90
2018-04-02T15:53:52.635Z,27.10
2018-04-02T15:56:18.571Z,27.90
2018-04-02T15:58:44.529Z,26.80
2018-04-02T16:01:11.238Z,25.20
2018-04-02T16:03:37.160Z,25.20
2018-04-02T16:06:03.152Z,26.70
2018-04-02T16:08:29.023Z,27.90
2018-04-02T16:10:54.968Z,27.20
2018-04-02T16:13:20.896Z,27.40
2018-04-02T16:15:46.890Z,26.30
2018-04-02T16:18:13.596Z,27.60
2018-04-02T16:20:39.542Z,27.60
2018-04-02T16:23:05.502Z,26.70
2018-04-02T16:25:31.436Z,28.30
2018-04-02T16:27:57.391Z,26.90
2018-04-02T16:30:23.323Z,27.60
2018-04-02T16:32:49.256Z,28.20
2018-04-02T16:35:15.205Z,28.00
2018-04-02T16:37:41.136Z,27.20
2018-04-02T16:40:07.093Z,27.50
2018-04-02T16:42:33.019Z,28.00
2018-04-02T16:44:58.972Z,27.90
2018-04-02T16:47:25.624Z,28.70
2018-04-02T16:49:51.589Z,28.30
2018-04-02T16:52:17.509Z,28.90
2018-04-02T16:54:43.444Z,28.90
2018-04-02T16:57:09.411Z,29.20
2018-04-02T16:59:35.356Z,29.80
2018-04-02T17:02:01.321Z,29.40
2018-04-02T17:04:27.297Z,29.00
2018-04-02T17:06:53.240Z,28.90
2018-04-02T17:09:19.133Z,29.70
2018-04-02T17:11:45.049Z,30.70
2018-04-02T17:14:11.016Z,31.40
2018-04-02T17:16:37.049Z,30.80
2018-04-02T17:19:03.020Z,31.40
2018-04-02T17:21:28.943Z,30.60
2018-04-02T17:23:54.876Z,30.70
2018-04-02T17:26:20.842Z,30.00
2018-04-02T17:28:46.781Z,29.80
2018-04-02T17:31:12.722Z,30.00
2018-04-02T17:33:38.695Z,30.20
2018-04-02T17:36:04.644Z,30.60
2018-04-02T17:38:31.390Z,31.80
2018-04-02T17:40:57.331Z,31.80
2018-04-02T17:43:23.319Z,31.30
2018-04-02T17:45:50.003Z,31.00
2018-04-02T17:48:15.963Z,31.00
2018-04-02T17:50:41.942Z,30.60
2018-04-02T17:53:07.903Z,31.00
2018-04-02T17:55:33.845Z,31.50
2018-04-02T17:57:59.799Z,31.30
2018-04-02T18:00:25.772Z,31.60
2018-04-02T18:02:51.692Z,31.80
2018-04-02T18:05:17.673Z,31.50
2018-04-02T18:07:43.649Z,32.90
2018-04-02T18:10:09.611Z,32.90
2018-04-02T18:12:35.575Z,32.10
2018-04-02T18:15:01.524Z,32.70
2018-04-02T18:17:27.507Z,33.30
2018-04-02T18:19:53.459Z,33.50
2018-04-02T18:22:19.408Z,33.80
2018-04-02T18:24:45.350Z,33.70
2018-04-02T18:27:11.294Z,33.70
2018-04-02T18:29:37.273Z,35.00
2018-04-02T18:32:03.270Z,34.40
2018-04-02T18:34:30.057Z,35.20
2018-04-02T18:36:56.210Z,35.30
2018-04-02T18:39:23.121Z,35.50
2018-04-02T18:41:49.292Z,35.50
2018-04-02T18:44:16.244Z,34.80
2018-04-02T18:46:42.910Z,34.80
2018-04-02T18:49:09.008Z,35.40
2018-04-02T18:51:35.227Z,34.80
2018-04-02T18:54:01.532Z,35.10
2018-04-02T18:56:27.632Z,34.50
2018-04-02T18:58:53.710Z,34.70
2018-04-02T19:01:20.592Z,35.10
2018-04-02T19:03:46.708Z,36.30
2018-04-02T19:06:12.783Z,35.30
2018-04-02T19:08:38.953Z,35.50
2018-04-02T19:11:05.021Z,35.30
2018-04-02T19:13:31.154Z,35.10
2018-04-02T19:15:57.394Z,34.90
2018-04-02T19:18:23.399Z,35.40
2018-04-02T19:20:49.456Z,35.10
2018-04-02T19:23:15.412Z,35.10
2018-04-02T19:25:41.486Z,35.70
2018-04-02T19:28:07.472Z,36.00
2018-04-02T19:30:33.451Z,35.70
2018-04-02T19:32:59.547Z,35.60
2018-04-02T19:35:26.296Z,35.60
2018-04-02T19:37:52.369Z,35.70
2018-04-02T19:40:18.406Z,35.50
2018-04-02T19:42:44.549Z,34.70
2018-04-02T19:45:10.696Z,35.50
2018-04-02T19:47:37.754Z,35.90
2018-04-02T19:50:03.795Z,35.60
2018-04-02T19:52:30.552Z,36.50
2018-04-02T19:54:56.641Z,36.50
2018-04-02T19:57:23.475Z,36.80
2018-04-02T19:59:50.334Z,36.70
2018-04-02T20:02:16.433Z,36.90
2018-04-02T20:04:42.449Z,37.20
2018-04-02T20:07:08.493Z,37.40
2018-04-02T20:09:34.555Z,37.90
2018-04-02T20:12:01.321Z,36.70
2018-04-02T20:14:27.448Z,36.60
2018-04-02T20:16:53.479Z,37.50
2018-04-02T20:19:19.558Z,38.20
2018-04-02T20:21:45.506Z,37.10
2018-04-02T20:24:11.447Z,38.00
2018-04-02T20:26:37.378Z,37.10
2018-04-02T20:29:03.332Z,37.20
2018-04-02T20:31:29.253Z,36.90
2018-04-02T20:33:55.201Z,36.70
2018-04-02T20:36:21.944Z,37.40
2018-04-02T20:38:48.672Z,37.70
2018-04-02T20:41:14.618Z,37.70
2018-04-02T20:43:40.514Z,37.30
2018-04-02T20:46:06.464Z,37.40
2018-04-02T20:48:32.401Z,37.20
2018-04-02T20:50:58.344Z,36.90
2018-04-02T20:53:24.234Z,36.90
2018-04-02T20:55:50.168Z,37.00
2018-04-02T20:58:16.064Z,37.20
2018-04-02T21:00:42.011Z,37.40
2018-04-02T21:03:07.955Z,38.10
2018-04-02T21:05:33.875Z,37.90
2018-04-02T21:07:59.789Z,38.80
2018-04-02T21:10:25.700Z,38.70
2018-04-02T21:12:51.643Z,38.50
2018-04-02T21:15:17.606Z,38.00
2018-04-02T21:17:44.359Z,38.90
2018-04-02T21:20:10.315Z,38.80
2018-04-02T21:22:36.280Z,38.70
2018-04-02T21:25:02.932Z,38.90
2018-04-02T21:27:28.828Z,38.90
2018-04-02T21:29:54.763Z,39.10
2018-04-02T21:32:21.432Z,39.70
2018-04-02T21:34:47.406Z,39.80
2018-04-02T21:37:13.344Z,40.10
2018-04-02T21:39:40.023Z,40.30
2018-04-02T21:42:05.941Z,40.50
2018-04-02T21:44:31.905Z,40.70
2018-04-02T21:46:57.827Z,41.00
2018-04-02T21:49:23.746Z,41.50
2018-04-02T21:51:49.695Z,41.40
2018-04-02T21:54:15.662Z,41.80
2018-04-02T21:56:41.660Z,41.90
2018-04-02T21:59:07.544Z,42.10
2018-04-02T22:01:33.496Z,42.30
2018-04-02T22:03:59.395Z,42.70
2018-04-02T22:06:26.103Z,42.20
2018-04-02T22:08:52.020Z,42.20
2018-04-02T22:11:17.912Z,41.90
2018-04-02T22:13:43.845Z,42.00
2018-04-02T22:16:09.759Z,42.20
2018-04-02T22:18:35.703Z,42.00
2018-04-02T22:21:01.603Z,42.10
2018-04-02T22:23:27.538Z,42.40
2018-04-02T22:25:53.424Z,42.40
2018-04-02T22:28:19.379Z,42.60
2018-04-02T22:30:45.290Z,42.50
2018-04-02T22:33:11.213Z,42.30
2018-04-02T22:35:37.109Z,42.40
2018-04-02T22:38:03.048Z,42.50
2018-04-02T22:40:28.948Z,42.70
2018-04-02T22:42:54.878Z,42.80
2018-04-02T22:45:20.787Z,42.20
2018-04-02T22:47:47.412Z,42.30
2018-04-02T22:50:14.069Z,43.30
2018-04-02T22:52:40.004Z,42.70
2018-04-02T22:55:05.922Z,42.60
2018-04-02T22:57:31.871Z,43.10
2018-04-02T22:59:57.819Z,43.00
2018-04-02T23:02:23.720Z,43.30
2018-04-02T23:04:49.653Z,43.30
2018-04-02T23:07:15.580Z,44.00
2018-04-02T23:09:41.475Z,43.70
2018-04-02T23:12:07.420Z,43.90
2018-04-02T23:14:33.337Z,44.30
2018-04-02T23:16:59.255Z,44.50
2018-04-02T23:19:25.186Z,44.80
2018-04-02T23:21:51.080Z,44.40
2018-04-02T23:24:16.999Z,44.70
2018-04-02T23:26:42.880Z,44.40
2018-04-02T23:29:08.825Z,44.60
2018-04-02T23:31:34.751Z,44.50
2018-04-02T23:34:00.688Z,45.00
2018-04-02T23:36:26.587Z,44.50
2018-04-02T23:38:53.257Z,44.80
2018-04-02T23:41:19.194Z,44.70
2018-04-02T23:43:45.120Z,44.50
2018-04-02T23:46:11.825Z,45.00
2018-04-02T23:48:37.760Z,44.90
2018-04-02T23:51:03.664Z,44.90
2018-04-02T23:53:29.595Z,45.20
2018-04-02T23:55:55.511Z,44.50
2018-04-02T23:58:21.436Z,44.40
